createdAt,value
2022-08-03T00:01:25.417Z,80.20
2022-08-03T00:03:52.249Z,80.40
2022-08-03T00:06:19.516Z,80.80
2022-08-03T00:08:46.341Z,80.90
2022-08-03T00:11:13.246Z,81.40
2022-08-03T00:13:40.347Z,81.30
2022-08-03T00:16:07.247Z,81.10
2022-08-03T00:18:34.246Z,81.00
2022-08-03T00:21:01.113Z,80.90
2022-08-03T00:23:50.786Z,81.10
2022-08-03T00:26:14.947Z,81.30
2022-08-03T00:28:42.066Z,81.10
2022-08-03T00:31:09.054Z,81.40
2022-08-03T00:33:58.056Z,81.30
2022-08-03T00:36:28.375Z,81.80
2022-08-03T00:38:56.471Z,81.80
2022-08-03T00:41:23.576Z,81.90
2022-08-03T00:43:50.672Z,81.80
2022-08-03T00:46:21.329Z,82.10
2022-08-03T00:48:53.178Z,82.50
2022-08-03T00:51:23.917Z,83.10
2022-08-03T00:53:51.344Z,82.60
2022-08-03T00:56:18.882Z,82.50
2022-08-03T00:58:47.005Z,82.50
2022-08-03T01:01:14.606Z,82.60
2022-08-03T01:03:41.621Z,83.50
2022-08-03T01:06:19.986Z,82.80
2022-08-03T01:09:17.788Z,83.00
2022-08-03T01:12:00.543Z,83.10
2022-08-03T01:14:44.388Z,83.00
2022-08-03T01:17:14.101Z,83.10
2022-08-03T01:19:56.353Z,83.20
2022-08-03T01:22:37.712Z,82.90
2022-08-03T01:25:33.544Z,83.30
2022-08-03T01:28:21.842Z,84.00
2022-08-03T01:30:49.994Z,84.40
2022-08-03T01:33:22.036Z,83.60
2022-08-03T01:35:59.536Z,83.50
2022-08-03T01:38:30.814Z,83.50
2022-08-03T01:41:01.806Z,83.70
2022-08-03T01:43:55.190Z,84.20
2022-08-03T01:46:20.629Z,84.30
2022-08-03T01:48:49.001Z,83.60
2022-08-03T01:51:18.501Z,83.50
2022-08-03T01:53:47.084Z,83.40
2022-08-03T01:56:16.015Z,83.30
2022-08-03T01:58:45.534Z,83.60
2022-08-03T02:01:13.671Z,84.10
2022-08-03T02:03:58.058Z,84.30
2022-08-03T02:07:01.772Z,84.00
2022-08-03T02:09:20.098Z,84.20
2022-08-03T02:11:48.471Z,83.90
2022-08-03T02:14:17.041Z,84.10
2022-08-03T02:16:45.888Z,84.30
2022-08-03T02:19:14.615Z,84.40
2022-08-03T02:21:56.447Z,84.10
2022-08-03T02:24:29.367Z,84.30
2022-08-03T02:26:57.212Z,84.20
2022-08-03T02:29:38.689Z,84.20
2022-08-03T02:32:14.383Z,84.10
2022-08-03T02:34:45.112Z,84.10
2022-08-03T02:37:13.482Z,84.90
2022-08-03T02:39:42.994Z,84.90
2022-08-03T02:42:13.504Z,84.60
2022-08-03T02:44:47.576Z,84.80
2022-08-03T02:47:15.781Z,85.20
2022-08-03T02:49:50.388Z,85.70
2022-08-03T02:52:21.665Z,85.60
2022-08-03T02:54:51.187Z,85.40
2022-08-03T02:57:19.919Z,85.30
2022-08-03T02:59:47.601Z,85.20
2022-08-03T03:02:16.942Z,85.20
2022-08-03T03:05:55.558Z,85.30
2022-08-03T03:07:35.336Z,85.10
2022-08-03T03:10:21.967Z,85.40
2022-08-03T03:12:52.511Z,85.90
2022-08-03T03:15:19.527Z,85.50
2022-08-03T03:17:49.680Z,85.30
2022-08-03T03:20:29.670Z,85.40
2022-08-03T03:23:00.069Z,85.60
2022-08-03T03:25:31.571Z,85.70
2022-08-03T03:28:01.367Z,86.30
2022-08-03T03:30:30.083Z,86.30
2022-08-03T03:32:58.785Z,86.20
2022-08-03T03:35:27.243Z,86.30
2022-08-03T03:37:54.539Z,85.80
2022-08-03T03:40:22.632Z,85.70
2022-08-03T03:42:50.600Z,85.90
2022-08-03T03:45:18.654Z,86.20
2022-08-03T03:47:45.729Z,86.30
2022-08-03T03:50:13.421Z,86.30
2022-08-03T03:52:40.507Z,86.10
2022-08-03T03:55:08.009Z,86.30
2022-08-03T03:57:35.302Z,86.00
2022-08-03T04:00:02.475Z,85.80
2022-08-03T04:02:31.377Z,86.00
2022-08-03T04:05:16.840Z,86.00
2022-08-03T04:08:16.460Z,86.70
2022-08-03T04:11:01.363Z,86.70
2022-08-03T04:13:33.433Z,86.10
2022-08-03T04:16:01.331Z,86.50
2022-08-03T04:18:32.605Z,86.60
2022-08-03T04:21:03.697Z,86.30
2022-08-03T04:23:35.160Z,86.40
2022-08-03T04:26:09.700Z,86.00
2022-08-03T04:28:39.584Z,86.00
2022-08-03T04:31:07.142Z,86.80
2022-08-03T04:33:38.373Z,86.50
2022-08-03T04:36:08.865Z,85.90
2022-08-03T04:39:00.912Z,86.00
2022-08-03T04:41:28.643Z,85.70
2022-08-03T04:43:58.033Z,85.40
2022-08-03T04:46:40.608Z,85.40
2022-08-03T04:49:14.138Z,84.80
2022-08-03T04:51:42.666Z,85.70
2022-08-03T04:54:13.403Z,85.10
2022-08-03T04:56:41.558Z,84.80
2022-08-03T04:59:09.110Z,84.50
2022-08-03T05:01:36.272Z,84.30
2022-08-03T05:04:03.668Z,84.30
2022-08-03T05:06:30.777Z,84.00
2022-08-03T05:08:57.921Z,83.70
2022-08-03T05:11:24.754Z,83.60
2022-08-03T05:13:51.918Z,83.50
2022-08-03T05:16:19.017Z,83.50
2022-08-03T05:18:46.120Z,83.20
2022-08-03T05:21:16.925Z,83.00
2022-08-03T05:23:44.831Z,81.80
2022-08-03T05:26:12.119Z,81.40
2022-08-03T05:28:39.690Z,81.10
2022-08-03T05:31:18.194Z,81.00
2022-08-03T05:33:45.145Z,80.20
2022-08-03T05:36:12.626Z,80.60
2022-08-03T05:38:39.653Z,79.20
2022-08-03T05:41:22.132Z,79.30
2022-08-03T05:43:54.450Z,78.70
2022-08-03T05:46:22.728Z,78.70
2022-08-03T05:48:50.913Z,78.10
2022-08-03T05:51:17.832Z,77.20
2022-08-03T05:53:45.097Z,77.10
2022-08-03T05:56:14.610Z,76.90
2022-08-03T05:58:47.389Z,76.60
2022-08-03T06:01:17.914Z,77.10
2022-08-03T06:03:46.219Z,77.20
2022-08-03T06:06:13.249Z,76.50
2022-08-03T06:08:41.851Z,75.90
2022-08-03T06:11:09.686Z,75.90
2022-08-03T06:13:36.898Z,75.20
2022-08-03T06:16:04.064Z,75.40
2022-08-03T06:18:31.412Z,74.60
2022-08-03T06:20:58.364Z,74.30
2022-08-03T06:23:53.141Z,73.40
2022-08-03T06:26:22.359Z,75.00
2022-08-03T06:28:52.583Z,74.60
2022-08-03T06:31:21.473Z,73.90
2022-08-03T06:34:33.228Z,73.20
2022-08-03T06:36:35.774Z,72.90
2022-08-03T06:39:03.642Z,72.10
2022-08-03T06:41:30.615Z,71.10
2022-08-03T06:44:08.127Z,71.20
2022-08-03T06:46:37.234Z,70.50
2022-08-03T06:49:04.220Z,70.80
2022-08-03T06:52:03.347Z,69.30
2022-08-03T06:54:18.228Z,68.50
2022-08-03T06:56:45.034Z,69.50
2022-08-03T07:00:08.852Z,67.20
2022-08-03T07:01:58.912Z,66.80
2022-08-03T07:04:25.783Z,67.00
2022-08-03T07:06:52.678Z,66.50
2022-08-03T07:09:19.641Z,65.60
2022-08-03T07:11:46.556Z,64.50
2022-08-03T07:14:13.770Z,62.80
2022-08-03T07:16:40.792Z,60.50
2022-08-03T07:19:07.685Z,56.30
2022-08-03T07:21:34.530Z,54.30
2022-08-03T07:24:01.456Z,51.20
2022-08-03T07:26:28.495Z,49.00
2022-08-03T07:28:55.389Z,47.10
2022-08-03T07:31:22.382Z,44.40
2022-08-03T07:33:49.232Z,42.70
2022-08-03T07:36:16.088Z,40.90
2022-08-03T07:38:42.865Z,41.30
2022-08-03T07:41:09.782Z,38.80
2022-08-03T07:43:36.737Z,37.20
2022-08-03T07:46:03.575Z,38.40
2022-08-03T07:48:30.739Z,36.30
2022-08-03T07:50:57.796Z,34.00
2022-08-03T07:53:24.882Z,34.80
2022-08-03T07:55:51.783Z,33.30
2022-08-03T07:58:23.717Z,32.40
2022-08-03T08:00:53.008Z,31.70
2022-08-03T08:03:21.833Z,30.70
2022-08-03T08:05:49.831Z,30.20
2022-08-03T08:08:16.683Z,30.10
2022-08-03T08:10:58.534Z,29.50
2022-08-03T08:13:25.875Z,28.70
2022-08-03T08:15:52.695Z,28.80
2022-08-03T08:18:19.576Z,28.10
2022-08-03T08:20:46.442Z,28.20
2022-08-03T08:23:29.849Z,27.50
2022-08-03T08:26:00.055Z,27.50
2022-08-03T08:28:32.164Z,27.70
2022-08-03T08:31:00.832Z,28.00
2022-08-03T08:33:42.181Z,27.20
2022-08-03T08:36:15.512Z,27.20
2022-08-03T08:38:44.605Z,26.60
2022-08-03T08:41:13.203Z,26.80
2022-08-03T08:43:41.059Z,26.60
2022-08-03T08:46:11.893Z,26.10
2022-08-03T08:48:42.344Z,26.10
2022-08-03T08:51:10.784Z,25.90
2022-08-03T08:53:40.344Z,25.10
2022-08-03T08:56:12.897Z,26.20
2022-08-03T08:58:42.446Z,25.40
2022-08-03T09:01:10.246Z,24.30
2022-08-03T09:03:37.378Z,25.60
2022-08-03T09:06:04.575Z,24.70
2022-08-03T09:08:34.382Z,24.90
2022-08-03T09:11:01.620Z,24.30
2022-08-03T09:13:30.421Z,24.70
2022-08-03T09:16:15.498Z,24.40
2022-08-03T09:18:51.590Z,22.90
2022-08-03T09:21:34.169Z,23.10
2022-08-03T09:24:05.698Z,23.10
2022-08-03T09:26:35.849Z,24.00
2022-08-03T09:29:15.366Z,24.60
2022-08-03T09:31:45.017Z,23.70
2022-08-03T09:34:14.847Z,23.10
2022-08-03T09:36:46.907Z,23.00
2022-08-03T09:39:19.363Z,23.20
2022-08-03T09:41:47.443Z,22.80
2022-08-03T09:44:25.296Z,22.00
2022-08-03T09:46:56.968Z,22.60
2022-08-03T09:49:25.186Z,21.30
2022-08-03T09:52:31.495Z,21.60
2022-08-03T09:54:41.408Z,21.50
2022-08-03T09:57:08.756Z,22.00
2022-08-03T09:59:35.668Z,21.60
2022-08-03T10:02:20.066Z,23.50
2022-08-03T10:04:53.353Z,22.30
2022-08-03T10:07:24.495Z,21.90
2022-08-03T10:09:58.104Z,22.30
2022-08-03T10:12:45.394Z,23.10
2022-08-03T10:16:23.783Z,23.60
2022-08-03T10:17:59.753Z,23.60
2022-08-03T10:20:27.098Z,24.20
2022-08-03T10:22:54.157Z,23.80
2022-08-03T10:25:21.611Z,24.30
2022-08-03T10:28:04.405Z,24.40
2022-08-03T10:30:33.197Z,24.80
2022-08-03T10:33:15.301Z,24.60
2022-08-03T10:35:57.927Z,24.30
2022-08-03T10:38:32.720Z,24.20
2022-08-03T10:41:01.284Z,23.40
2022-08-03T10:43:37.079Z,24.30
2022-08-03T10:46:06.895Z,24.00
2022-08-03T10:48:35.581Z,23.70
2022-08-03T10:51:03.418Z,23.90
2022-08-03T10:53:44.171Z,24.60
2022-08-03T10:56:52.192Z,24.80
2022-08-03T10:59:33.596Z,26.30
2022-08-03T11:02:01.421Z,26.10
2022-08-03T11:04:29.724Z,26.60
2022-08-03T11:07:15.924Z,27.40
2022-08-03T11:09:47.646Z,27.80
2022-08-03T11:12:30.457Z,28.20
2022-08-03T11:15:02.139Z,29.00
2022-08-03T11:17:29.472Z,29.60
2022-08-03T11:19:57.521Z,29.60
2022-08-03T11:22:25.933Z,29.70
2022-08-03T11:24:57.128Z,29.50
2022-08-03T11:27:28.978Z,28.80
2022-08-03T11:29:59.066Z,30.00
2022-08-03T11:32:38.356Z,31.20
2022-08-03T11:35:17.647Z,32.90
2022-08-03T11:38:06.021Z,31.60
2022-08-03T11:40:46.258Z,32.00
2022-08-03T11:43:22.389Z,31.30
2022-08-03T11:46:06.312Z,30.90
2022-08-03T11:48:43.421Z,32.60
2022-08-03T11:51:29.401Z,31.70
2022-08-03T11:54:04.747Z,31.30
2022-08-03T11:56:49.528Z,32.00
2022-08-03T11:59:21.818Z,32.60
2022-08-03T12:01:49.905Z,33.10
2022-08-03T12:04:16.810Z,32.10
2022-08-03T12:06:59.380Z,33.30
2022-08-03T12:09:26.259Z,32.50
2022-08-03T12:12:00.200Z,34.30
2022-08-03T12:14:49.770Z,31.60
2022-08-03T12:17:17.648Z,32.30
2022-08-03T12:19:45.217Z,32.60
2022-08-03T12:22:12.027Z,32.00
2022-08-03T12:24:42.779Z,31.90
2022-08-03T12:27:09.922Z,33.40
2022-08-03T12:29:37.179Z,34.10
2022-08-03T12:32:04.240Z,33.20
2022-08-03T12:34:48.978Z,32.20
2022-08-03T12:37:22.969Z,33.60
2022-08-03T12:40:00.446Z,31.30
2022-08-03T12:42:36.978Z,30.20
2022-08-03T12:45:23.121Z,30.50
2022-08-03T12:48:01.495Z,30.50
2022-08-03T12:50:34.033Z,30.10
2022-08-03T12:53:05.239Z,29.60
2022-08-03T12:55:56.293Z,30.40
2022-08-03T12:58:35.497Z,30.60
2022-08-03T13:01:10.073Z,28.20
2022-08-03T13:03:49.498Z,26.60
2022-08-03T13:06:25.447Z,26.60
2022-08-03T13:09:04.289Z,25.90
2022-08-03T13:11:57.600Z,26.40
2022-08-03T13:14:20.179Z,26.60
2022-08-03T13:16:50.731Z,26.40
2022-08-03T13:19:17.569Z,27.00
2022-08-03T13:22:01.817Z,28.20
2022-08-03T13:24:33.009Z,29.60
2022-08-03T13:27:00.615Z,30.60
2022-08-03T13:29:47.477Z,32.10
2022-08-03T13:32:14.524Z,31.00
2022-08-03T13:34:41.535Z,32.10
2022-08-03T13:37:09.760Z,33.10
2022-08-03T13:39:58.078Z,33.00
2022-08-03T13:42:24.601Z,33.10
2022-08-03T13:44:51.423Z,32.80
2022-08-03T13:47:18.596Z,34.40
2022-08-03T13:49:59.864Z,33.00
2022-08-03T13:52:36.371Z,33.50
2022-08-03T13:55:05.711Z,35.90
2022-08-03T13:58:05.418Z,37.00
2022-08-03T14:00:28.190Z,36.40
2022-08-03T14:03:03.935Z,35.90
2022-08-03T14:05:33.028Z,36.60
2022-08-03T14:08:05.725Z,36.20
2022-08-03T14:10:38.474Z,36.30
2022-08-03T14:13:06.121Z,35.60
2022-08-03T14:15:37.648Z,36.00
2022-08-03T14:18:07.369Z,37.70
2022-08-03T14:20:47.792Z,36.50
2022-08-03T14:23:18.714Z,35.50
2022-08-03T14:25:52.370Z,35.10
2022-08-03T14:28:24.004Z,36.50
2022-08-03T14:30:55.949Z,36.80
2022-08-03T14:33:23.757Z,36.50
2022-08-03T14:35:51.988Z,36.60
2022-08-03T14:38:19.455Z,36.50
2022-08-03T14:40:46.696Z,37.30
2022-08-03T14:43:13.927Z,36.30
2022-08-03T14:45:41.393Z,36.40
2022-08-03T14:50:33.381Z,36.40
2022-08-03T14:50:56.595Z,36.80
2022-08-03T14:53:24.390Z,36.90
2022-08-03T14:55:52.934Z,37.20
2022-08-03T14:58:22.068Z,37.40
2022-08-03T15:00:50.805Z,37.30
2022-08-03T15:03:23.959Z,36.90
2022-08-03T15:05:56.370Z,37.10
2022-08-03T15:08:24.784Z,37.20
2022-08-03T15:10:52.111Z,37.10
2022-08-03T15:13:19.969Z,37.20
2022-08-03T15:15:47.847Z,38.30
2022-08-03T15:18:14.731Z,38.30
2022-08-03T15:20:45.478Z,39.00
2022-08-03T15:23:16.990Z,39.10
2022-08-03T15:26:06.472Z,39.10
2022-08-03T15:28:32.697Z,38.50
2022-08-03T15:31:00.063Z,38.90
2022-08-03T15:33:27.692Z,39.90
2022-08-03T15:35:54.689Z,40.60
2022-08-03T15:38:25.830Z,41.20
2022-08-03T15:40:58.863Z,41.80
2022-08-03T15:43:25.692Z,39.10
2022-08-03T15:46:19.093Z,38.70
2022-08-03T15:48:40.201Z,38.40
2022-08-03T15:51:09.446Z,38.90
2022-08-03T15:53:36.761Z,39.00
2022-08-03T15:56:09.822Z,39.00
2022-08-03T15:59:10.751Z,39.00
2022-08-03T16:01:26.876Z,39.10
2022-08-03T16:03:53.940Z,39.80
2022-08-03T16:06:29.570Z,41.00
2022-08-03T16:09:03.461Z,41.20
2022-08-03T16:11:30.892Z,39.60
2022-08-03T16:14:13.234Z,38.90
2022-08-03T16:16:44.701Z,38.60
2022-08-03T16:19:13.630Z,38.90
2022-08-03T16:21:48.267Z,38.70
2022-08-03T16:24:17.466Z,38.70
2022-08-03T16:26:50.035Z,38.70
2022-08-03T16:29:22.345Z,38.50
2022-08-03T16:31:51.155Z,38.70
2022-08-03T16:34:18.532Z,40.50
2022-08-03T16:36:45.915Z,42.40
2022-08-03T16:39:12.920Z,40.90
2022-08-03T16:41:54.244Z,41.50
2022-08-03T16:44:28.730Z,42.30
2022-08-03T16:46:55.546Z,42.40
2022-08-03T16:49:55.161Z,42.80
2022-08-03T16:52:09.430Z,43.30
2022-08-03T16:54:40.236Z,43.00
2022-08-03T16:57:07.709Z,43.40
2022-08-03T16:59:36.171Z,42.90
2022-08-03T17:02:09.927Z,45.50
2022-08-03T17:04:40.185Z,46.20
2022-08-03T17:07:08.905Z,43.60
2022-08-03T17:09:38.295Z,43.20
2022-08-03T17:12:06.276Z,44.10
2022-08-03T17:14:34.151Z,43.00
2022-08-03T17:17:04.700Z,44.60
2022-08-03T17:19:39.406Z,46.20
2022-08-03T17:22:18.653Z,46.30
2022-08-03T17:24:50.908Z,48.10
2022-08-03T17:28:41.641Z,47.90
2022-08-03T17:30:10.532Z,49.40
2022-08-03T17:32:42.575Z,47.60
2022-08-03T17:35:11.267Z,47.70
2022-08-03T17:37:57.975Z,48.00
2022-08-03T17:40:25.816Z,47.40
2022-08-03T17:42:53.478Z,48.20
2022-08-03T17:45:20.982Z,47.40
2022-08-03T17:47:57.419Z,47.60
2022-08-03T17:50:33.877Z,47.70
2022-08-03T17:53:15.363Z,48.10
2022-08-03T17:56:40.436Z,47.80
2022-08-03T17:59:50.293Z,47.80
2022-08-03T18:03:04.417Z,47.90
2022-08-03T18:06:11.499Z,48.50
2022-08-03T18:08:32.682Z,48.60
2022-08-03T18:11:09.839Z,48.50
2022-08-03T18:13:58.106Z,48.70
2022-08-03T18:16:38.875Z,48.90
2022-08-03T18:19:09.262Z,49.70
2022-08-03T18:22:03.382Z,49.00
2022-08-03T18:24:25.745Z,49.40
2022-08-03T18:26:55.446Z,49.20
2022-08-03T18:29:25.995Z,49.70
2022-08-03T18:32:02.847Z,49.60
2022-08-03T18:34:34.530Z,49.60
2022-08-03T18:37:07.468Z,50.00
2022-08-03T18:39:49.706Z,50.50
2022-08-03T18:42:19.432Z,50.80
2022-08-03T18:44:54.241Z,52.80
2022-08-03T18:47:51.731Z,50.70
2022-08-03T18:50:46.470Z,50.80
2022-08-03T18:54:02.251Z,53.20
2022-08-03T18:56:42.440Z,52.30
2022-08-03T18:59:46.282Z,52.80
2022-08-03T19:02:49.043Z,56.90
2022-08-03T19:05:24.683Z,55.90
2022-08-03T19:08:17.886Z,57.00
2022-08-03T19:11:00.646Z,55.60
2022-08-03T19:13:50.312Z,57.50
2022-08-03T19:16:38.771Z,59.30
2022-08-03T19:19:10.554Z,57.80
2022-08-03T19:21:41.759Z,58.40
2022-08-03T19:24:10.205Z,58.40
2022-08-03T19:26:39.538Z,58.40
2022-08-03T19:29:15.049Z,58.20
2022-08-03T19:31:59.023Z,59.00
2022-08-03T19:34:32.663Z,60.10
2022-08-03T19:37:00.592Z,60.90
2022-08-03T19:39:27.813Z,60.80
2022-08-03T19:42:09.130Z,61.60
2022-08-03T19:44:58.279Z,61.00
2022-08-03T19:47:35.254Z,60.10
2022-08-03T19:50:13.985Z,61.20
2022-08-03T19:52:44.054Z,62.10
2022-08-03T19:55:12.206Z,62.00
2022-08-03T19:57:43.068Z,62.50
2022-08-03T20:00:13.899Z,62.60
2022-08-03T20:02:41.521Z,63.40
2022-08-03T20:05:14.831Z,63.10
2022-08-03T20:07:47.873Z,63.70
2022-08-03T20:10:17.849Z,62.60
2022-08-03T20:12:46.122Z,62.20
2022-08-03T20:15:13.481Z,62.90
2022-08-03T20:17:56.062Z,62.90
2022-08-03T20:20:29.994Z,62.20
2022-08-03T20:22:59.020Z,64.40
2022-08-03T20:25:38.137Z,63.60
2022-08-03T20:28:13.774Z,64.30
2022-08-03T20:30:44.031Z,64.30
2022-08-03T20:33:12.333Z,65.10
2022-08-03T20:35:49.183Z,65.50
2022-08-03T20:38:18.485Z,65.80
2022-08-03T20:40:47.051Z,65.90
2022-08-03T20:43:14.632Z,65.90
2022-08-03T20:45:59.990Z,65.60
2022-08-03T20:48:31.684Z,65.20
2022-08-03T20:50:59.468Z,66.10
2022-08-03T20:53:57.304Z,66.80
2022-08-03T20:56:15.673Z,66.00
2022-08-03T20:58:50.492Z,66.20
2022-08-03T21:01:27.582Z,66.00
2022-08-03T21:04:09.274Z,67.60
2022-08-03T21:06:53.081Z,65.80
2022-08-03T21:09:25.177Z,66.90
2022-08-03T21:12:18.941Z,67.20
2022-08-03T21:15:08.567Z,67.00
2022-08-03T21:17:43.381Z,66.90
2022-08-03T21:20:12.942Z,68.50
2022-08-03T21:22:53.640Z,68.40
2022-08-03T21:25:41.601Z,68.40
2022-08-03T21:28:24.662Z,68.70
2022-08-03T21:31:09.643Z,68.50
2022-08-03T21:33:47.063Z,68.30
2022-08-03T21:36:14.736Z,68.40
2022-08-03T21:38:43.766Z,68.50
2022-08-03T21:41:14.529Z,68.40
2022-08-03T21:43:41.372Z,67.90
2022-08-03T21:46:09.701Z,68.60
2022-08-03T21:48:38.912Z,69.10
2022-08-03T21:51:07.730Z,69.10
2022-08-03T21:54:02.541Z,69.10
2022-08-03T21:56:23.605Z,67.60
2022-08-03T21:58:55.236Z,69.20
2022-08-03T22:01:24.929Z,67.90
2022-08-03T22:03:56.043Z,68.00
2022-08-03T22:06:27.652Z,68.50
2022-08-03T22:08:54.755Z,68.10
2022-08-03T22:11:21.989Z,68.10
2022-08-03T22:13:49.270Z,69.30
2022-08-03T22:16:17.087Z,68.80
2022-08-03T22:18:45.986Z,68.90
2022-08-03T22:21:16.157Z,70.50
2022-08-03T22:23:57.270Z,70.30
2022-08-03T22:26:34.844Z,71.00
2022-08-03T22:29:08.426Z,70.50
2022-08-03T22:31:58.188Z,70.60
2022-08-03T22:34:26.899Z,70.90
2022-08-03T22:36:57.339Z,70.40
2022-08-03T22:39:31.275Z,70.90
2022-08-03T22:42:02.519Z,70.20
2022-08-03T22:44:29.856Z,70.70
2022-08-03T22:46:57.993Z,71.10
2022-08-03T22:49:27.979Z,71.90
2022-08-03T22:51:55.913Z,70.00
2022-08-03T22:54:23.734Z,71.80
2022-08-03T22:56:51.679Z,73.50
2022-08-03T22:59:38.849Z,74.00
2022-08-03T23:02:20.960Z,74.20
2022-08-03T23:05:02.617Z,74.20
2022-08-03T23:07:38.249Z,74.10
2022-08-03T23:10:09.406Z,74.60
2022-08-03T23:12:39.252Z,73.70
2022-08-03T23:15:09.340Z,74.40
2022-08-03T23:17:58.121Z,74.10
2022-08-03T23:20:26.832Z,74.80
2022-08-03T23:22:54.670Z,74.60
2022-08-03T23:25:22.026Z,74.20
2022-08-03T23:28:05.513Z,74.10
2022-08-03T23:30:37.114Z,73.50
2022-08-03T23:33:04.458Z,74.10
2022-08-03T23:36:27.585Z,73.40
2022-08-03T23:38:37.177Z,73.70
2022-08-03T23:41:07.943Z,73.40
2022-08-03T23:43:52.077Z,72.80
2022-08-03T23:46:22.405Z,72.90
2022-08-03T23:48:50.852Z,73.90
2022-08-03T23:51:34.879Z,73.50
2022-08-03T23:54:19.972Z,75.80
2022-08-03T23:56:57.821Z,76.20
2022-08-03T23:59:33.823Z,76.90
